FDX659 KMCO-KJAX
Flight info
| Callsign | FDX659 |
|---|---|
| Flight time | N/A |
| Altitude | 23000 |
| Route | WORMS GUANO MMKAY HOTAR HOTAR1 |
| Aircraft | B461/M-SDFGIRWY/LB1 |
Departure
| Time | 2026-05-03 22:28 |
|---|---|
| Airport | Orlando International Airport (KMCO) |
Arrival
| Time | N/A |
|---|---|
| Airport | Jacksonville International Airport (KJAX) |
| Time | Latitude | Longitude | Altitude | Speed | Heading |
|---|---|---|---|---|---|
| 2026-05-03 22:05 | 28.43457 | -81.33026 | 107 ft | 0 kts | 268° |
| 2026-05-03 22:10 | 28.43457 | -81.33025 | 107 ft | 0 kts | 268° |
| 2026-05-03 22:21 | 28.43457 | -81.33024 | 107 ft | 0 kts | 268° |
| 2026-05-03 22:22 | 28.43452 | -81.33036 | 106 ft | 5 kts | 241° |
| 2026-05-03 22:22 | 28.43395 | -81.33072 | 108 ft | 14 kts | 187° |
| 2026-05-03 22:22 | 28.43350 | -81.33007 | 109 ft | 12 kts | 93° |
| 2026-05-03 22:23 | 28.43336 | -81.32937 | 106 ft | 9 kts | 143° |
| 2026-05-03 22:23 | 28.43245 | -81.32922 | 109 ft | 17 kts | 180° |
| 2026-05-03 22:23 | 28.43100 | -81.32923 | 108 ft | 24 kts | 179° |
| 2026-05-03 22:23 | 28.42934 | -81.32921 | 106 ft | 25 kts | 179° |
| 2026-05-03 22:24 | 28.42754 | -81.32919 | 104 ft | 28 kts | 180° |
| 2026-05-03 22:24 | 28.42545 | -81.32918 | 101 ft | 33 kts | 180° |
| 2026-05-03 22:24 | 28.42306 | -81.32917 | 101 ft | 36 kts | 179° |
| 2026-05-03 22:24 | 28.42046 | -81.32914 | 101 ft | 39 kts | 179° |
| 2026-05-03 22:25 | 28.41771 | -81.32910 | 110 ft | 40 kts | 179° |
| 2026-05-03 22:25 | 28.41505 | -81.32907 | 108 ft | 37 kts | 179° |
| 2026-05-03 22:25 | 28.41327 | -81.32900 | 107 ft | 12 kts | 83° |
| 2026-05-03 22:25 | 28.41380 | -81.32905 | 108 ft | 12 kts | 355° |
| 2026-05-03 22:26 | 28.41518 | -81.32883 | 108 ft | 27 kts | 43° |
| 2026-05-03 22:26 | 28.41538 | -81.32714 | 109 ft | 0 kts | 88° |
| 2026-05-03 22:26 | 28.41540 | -81.32699 | 109 ft | 6 kts | 75° |
| 2026-05-03 22:26 | 28.41590 | -81.32665 | 109 ft | 11 kts | 7° |
| 2026-05-03 22:27 | 28.41603 | -81.32665 | 109 ft | 0 kts | 358° |
| 2026-05-03 22:27 | 28.41625 | -81.32666 | 107 ft | 23 kts | 358° |
| 2026-05-03 22:27 | 28.42294 | -81.32670 | 102 ft | 113 kts | 360° |
| 2026-05-03 22:28 | 28.42885 | -81.32682 | 146 ft | 137 kts | 1° |
| 2026-05-03 22:28 | 28.43930 | -81.32716 | 317 ft | 163 kts | 1° |
| 2026-05-03 22:28 | 28.45123 | -81.32741 | 632 ft | 181 kts | 2° |
| 2026-05-03 22:28 | 28.46526 | -81.32893 | 701 ft | 226 kts | 354° |
| 2026-05-03 22:29 | 28.48153 | -81.33171 | 861 ft | 249 kts | 352° |
| 2026-05-03 22:29 | 28.49943 | -81.33471 | 1182 ft | 264 kts | 352° |
| 2026-05-03 22:29 | 28.51787 | -81.33751 | 1533 ft | 274 kts | 352° |
| 2026-05-03 22:29 | 28.53705 | -81.34030 | 1942 ft | 282 kts | 352° |
| 2026-05-03 22:30 | 28.55676 | -81.34304 | 2379 ft | 288 kts | 352° |
| 2026-05-03 22:30 | 28.57679 | -81.34564 | 2823 ft | 292 kts | 352° |
| 2026-05-03 22:30 | 28.59719 | -81.34821 | 3248 ft | 295 kts | 352° |
| 2026-05-03 22:30 | 28.61771 | -81.35051 | 3679 ft | 298 kts | 353° |
| 2026-05-03 22:31 | 28.63849 | -81.35214 | 4108 ft | 301 kts | 354° |
| 2026-05-03 22:31 | 28.65953 | -81.35390 | 4551 ft | 303 kts | 351° |
| 2026-05-03 22:31 | 28.68057 | -81.35635 | 4989 ft | 305 kts | 352° |
| 2026-05-03 22:31 | 28.70176 | -81.35803 | 5423 ft | 306 kts | 354° |
| 2026-05-03 22:32 | 28.72312 | -81.35913 | 5850 ft | 307 kts | 353° |
| 2026-05-03 22:32 | 28.74415 | -81.36072 | 6270 ft | 307 kts | 353° |
| 2026-05-03 22:32 | 28.76556 | -81.36245 | 6693 ft | 308 kts | 352° |
| 2026-05-03 22:32 | 28.78701 | -81.36418 | 7100 ft | 309 kts | 352° |
| 2026-05-03 22:33 | 28.80858 | -81.36592 | 7506 ft | 311 kts | 351° |
| 2026-05-03 22:33 | 28.83027 | -81.36770 | 7934 ft | 315 kts | 351° |
| 2026-05-03 22:33 | 28.85228 | -81.36940 | 8365 ft | 319 kts | 351° |
| 2026-05-03 22:33 | 28.87449 | -81.37120 | 8814 ft | 322 kts | 351° |
| 2026-05-03 22:34 | 28.89690 | -81.37305 | 9273 ft | 324 kts | 350° |
| 2026-05-03 22:34 | 28.91953 | -81.37478 | 9753 ft | 326 kts | 351° |
| 2026-05-03 22:34 | 28.94225 | -81.37643 | 10205 ft | 328 kts | 350° |
| 2026-05-03 22:34 | 28.96513 | -81.37823 | 10629 ft | 329 kts | 350° |
| 2026-05-03 22:35 | 28.98803 | -81.38006 | 11061 ft | 330 kts | 349° |
| 2026-05-03 22:35 | 29.01071 | -81.38181 | 11486 ft | 332 kts | 349° |
| 2026-05-03 22:35 | 29.03386 | -81.38351 | 11930 ft | 334 kts | 349° |
| 2026-05-03 22:35 | 29.05482 | -81.38506 | 12313 ft | 333 kts | 352° |
| 2026-05-03 22:36 | 29.07531 | -81.38650 | 11769 ft | 345 kts | 341° |
| 2026-05-03 22:36 | 29.09401 | -81.39075 | 11199 ft | 0 kts | 341° |